Time;durP1;ratioP1;P1;durP2;ratioP2;P2;SDS_P1;SDS_P2;PMS_P1;PMS_P2;Temp;Humidity;BMP_temperature;BMP_pressure;BME280_temperature;BME280_humidity;BME280_pressure;Samples;Min_cycle;Max_cycle;Signal;HPM_P1;HPM_P2
2023/10/15 00:00:12;;;;;;;;;;;15.70;82.80;;;;;;4181503;28;20473;-55
2023/10/15 00:02:53;;;;;;;;;;;15.60;82.70;;;;;;4187642;28;19939;-53
2023/10/15 00:05:35;;;;;;;;;;;15.60;80.80;;;;;;4203359;28;19931;-54
2023/10/15 00:08:15;;;;;;;;;;;15.60;80.90;;;;;;4204180;28;19935;-55
2023/10/15 00:10:58;;;;;;;;;;;15.60;81.50;;;;;;4204928;28;20439;-56
2023/10/15 00:13:40;;;;;;;;;;;15.60;82.80;;;;;;4184906;28;20489;-55
2023/10/15 00:16:21;;;;;;;;;;;15.60;82.20;;;;;;4170821;28;20083;-56
2023/10/15 00:19:09;;;;;;;;;;;15.60;82.40;;;;;;4187873;28;19985;-55
2023/10/15 00:21:51;;;;;;;;;;;15.60;82.50;;;;;;4187424;28;19931;-56
2023/10/15 00:24:31;;;;;;;;;;;15.60;82.60;;;;;;4190933;28;20481;-56
2023/10/15 00:27:15;;;;;;;;;;;15.60;82.80;;;;;;4204995;28;20007;-56
2023/10/15 00:29:56;;;;;;;;;;;15.50;82.90;;;;;;4193932;28;19976;-54
2023/10/15 00:32:37;;;;;;;;;;;15.60;83.90;;;;;;4205295;28;19942;-55
2023/10/15 00:35:19;;;;;;;;;;;15.50;83.10;;;;;;4207843;28;19935;-55
2023/10/15 00:38:07;;;;;;;;;;;15.50;83.10;;;;;;4192659;28;19931;-53
2023/10/15 00:40:51;;;;;;;;;;;15.50;83.20;;;;;;4190826;28;20041;-54
2023/10/15 00:43:35;;;;;;;;;;;15.50;83.30;;;;;;4181502;28;20456;-52
2023/10/15 00:46:17;;;;;;;;;;;15.50;83.30;;;;;;4180059;28;19936;-55
2023/10/15 00:49:02;;;;;;;;;;;15.50;83.00;;;;;;4181316;28;19932;-55
2023/10/15 00:51:45;;;;;;;;;;;15.50;83.70;;;;;;4191340;28;19935;-55
2023/10/15 00:54:26;;;;;;;;;;;15.50;82.90;;;;;;4191541;28;19931;-53
2023/10/15 00:57:25;;;;;;;;;;;15.40;82.80;;;;;;4195086;28;19931;-55
2023/10/15 01:00:37;;;;;;;;;;;15.50;83.00;;;;;;4206843;28;19931;-55
2023/10/15 01:03:13;;;;;;;;;;;15.40;83.10;;;;;;4190040;28;19932;-49
2023/10/15 01:05:54;;;;;;;;;;;15.40;83.20;;;;;;4205099;28;19939;-50
2023/10/15 01:08:38;;;;;;;;;;;15.40;83.50;;;;;;4200762;28;19931;-54
2023/10/15 01:11:19;;;;;;;;;;;15.40;83.70;;;;;;4191272;28;20298;-52
2023/10/15 01:14:00;;;;;;;;;;;15.40;83.70;;;;;;4189522;28;19935;-40
2023/10/15 01:16:42;;;;;;;;;;;15.40;83.70;;;;;;4207792;28;19935;-40
2023/10/15 01:19:32;;;;;;;;;;;15.40;83.20;;;;;;4179616;28;20063;-42
2023/10/15 01:22:18;;;;;;;;;;;15.40;83.50;;;;;;4174183;28;19931;-42
2023/10/15 01:25:09;;;;;;;;;;;15.40;83.50;;;;;;4173105;28;19932;-42
2023/10/15 01:27:54;;;;;;;;;;;15.30;82.40;;;;;;4190151;28;19931;-42
2023/10/15 01:30:36;;;;;;;;;;;15.30;83.10;;;;;;4180747;28;20077;-42
2023/10/15 01:33:19;;;;;;;;;;;15.30;82.70;;;;;;4195266;28;20069;-42
2023/10/15 01:36:06;;;;;;;;;;;15.30;82.90;;;;;;4173941;28;19932;-42
2023/10/15 01:38:50;;;;;;;;;;;15.30;83.00;;;;;;4182095;28;19946;-40
2023/10/15 01:41:33;;;;;;;;;;;15.30;83.20;;;;;;4189407;28;19970;-40
2023/10/15 01:44:18;;;;;;;;;;;15.30;83.20;;;;;;4202404;28;19931;-40
2023/10/15 01:49:56;;;;;;;;;;;15.30;83.30;;;;;;4205719;28;20298;-43
2023/10/15 01:52:41;;;;;;;;;;;15.30;83.50;;;;;;4204286;28;19977;-43
2023/10/15 01:55:28;;;;;;;;;;;15.30;83.60;;;;;;4194237;28;20422;-42
2023/10/15 01:58:12;;;;;;;;;;;15.30;83.70;;;;;;4202358;28;20427;-42
2023/10/15 02:00:53;;;;;;;;;;;15.30;83.80;;;;;;4204298;28;19931;-41
2023/10/15 02:03:34;;;;;;;;;;;15.30;83.70;;;;;;4206150;28;19935;-41
2023/10/15 02:06:19;;;;;;;;;;;15.30;83.90;;;;;;4197694;28;19936;-41
2023/10/15 02:09:07;;;;;;;;;;;15.30;83.90;;;;;;4189924;28;19977;-42
2023/10/15 02:11:48;;;;;;;;;;;15.30;84.00;;;;;;4203537;28;19988;-41
2023/10/15 02:14:30;;;;;;;;;;;15.20;84.00;;;;;;4188307;28;19932;-42
2023/10/15 02:17:13;;;;;;;;;;;15.20;84.10;;;;;;4191289;28;19932;-41
2023/10/15 02:19:55;;;;;;;;;;;15.20;84.10;;;;;;4184501;28;20565;-41
2023/10/15 02:22:38;;;;;;;;;;;15.20;84.20;;;;;;4183139;28;20373;-42
2023/10/15 02:25:22;;;;;;;;;;;15.30;84.30;;;;;;4188109;28;20312;-41
2023/10/15 02:28:03;;;;;;;;;;;15.20;85.30;;;;;;4171049;28;20386;-42
2023/10/15 02:30:47;;;;;;;;;;;15.20;84.50;;;;;;4172639;28;20059;-42
2023/10/15 02:33:28;;;;;;;;;;;15.20;84.60;;;;;;4171806;28;19993;-41
2023/10/15 02:36:09;;;;;;;;;;;15.20;84.60;;;;;;4172624;28;20006;-42
2023/10/15 02:38:53;;;;;;;;;;;15.20;84.70;;;;;;4189394;28;19999;-41
2023/10/15 02:41:40;;;;;;;;;;;15.20;84.70;;;;;;4187880;28;19956;-42
2023/10/15 02:44:22;;;;;;;;;;;15.20;84.80;;;;;;4189516;28;19931;-41
2023/10/15 02:47:10;;;;;;;;;;;15.20;84.80;;;;;;4190798;28;20434;-43
2023/10/15 02:49:52;;;;;;;;;;;15.20;84.90;;;;;;4199053;28;20021;-42
2023/10/15 02:52:42;;;;;;;;;;;15.20;84.90;;;;;;4188766;28;19930;-41
2023/10/15 02:55:35;;;;;;;;;;;15.20;85.00;;;;;;4182698;28;20390;-41
2023/10/15 02:58:16;;;;;;;;;;;15.20;85.00;;;;;;4185636;28;19943;-44
2023/10/15 03:01:06;;;;;;;;;;;15.20;85.10;;;;;;4196934;28;19939;-48
2023/10/15 03:03:49;;;;;;;;;;;15.20;85.20;;;;;;4184857;28;19932;-44
2023/10/15 03:06:31;;;;;;;;;;;15.20;85.20;;;;;;4170280;28;19935;-47
2023/10/15 03:09:17;;;;;;;;;;;15.20;85.20;;;;;;4191056;28;19959;-48
2023/10/15 03:11:58;;;;;;;;;;;15.20;85.30;;;;;;4187231;28;19931;-41
2023/10/15 03:14:39;;;;;;;;;;;15.20;85.30;;;;;;4188057;28;19950;-42
2023/10/15 03:17:25;;;;;;;;;;;15.20;85.30;;;;;;4203283;28;19931;-42
2023/10/15 03:20:23;;;;;;;;;;;15.20;85.30;;;;;;4201462;28;19935;-44
2023/10/15 03:23:05;;;;;;;;;;;15.20;85.30;;;;;;4202178;28;19980;-44
2023/10/15 03:25:57;;;;;;;;;;;15.20;85.40;;;;;;4189709;28;20401;-43
2023/10/15 03:28:44;;;;;;;;;;;15.10;85.40;;;;;;4184764;28;19935;-49
2023/10/15 03:31:27;;;;;;;;;;;15.10;85.40;;;;;;4202662;28;19935;-45
2023/10/15 03:34:17;;;;;;;;;;;15.10;86.20;;;;;;4187703;28;19931;-45
2023/10/15 03:37:00;;;;;;;;;;;15.10;85.50;;;;;;4202720;28;19947;-43
2023/10/15 03:39:55;;;;;;;;;;;15.10;85.60;;;;;;4180810;28;19935;-45
2023/10/15 03:42:39;;;;;;;;;;;15.10;85.70;;;;;;4193298;28;19935;-46
2023/10/15 03:45:26;;;;;;;;;;;15.10;85.80;;;;;;4170740;28;20291;-44
2023/10/15 03:48:09;;;;;;;;;;;15.10;85.90;;;;;;4170075;28;19932;-46
2023/10/15 03:50:57;;;;;;;;;;;15.10;86.80;;;;;;4171418;28;19931;-45
2023/10/15 03:53:41;;;;;;;;;;;15.10;86.10;;;;;;4187540;28;20057;-47
2023/10/15 03:56:27;;;;;;;;;;;15.10;86.00;;;;;;4187435;28;20424;-41
2023/10/15 03:59:08;;;;;;;;;;;15.10;86.10;;;;;;4187534;28;19932;-41
2023/10/15 04:01:50;;;;;;;;;;;15.10;86.10;;;;;;4199673;28;19968;-41
2023/10/15 04:04:31;;;;;;;;;;;15.10;86.20;;;;;;4203875;28;19976;-41
2023/10/15 04:07:19;;;;;;;;;;;15.00;87.10;;;;;;4174887;28;19935;-41
2023/10/15 04:10:04;;;;;;;;;;;15.00;86.30;;;;;;4170590;28;20357;-42
2023/10/15 04:12:45;;;;;;;;;;;15.00;87.20;;;;;;4181192;28;20063;-41
2023/10/15 04:15:26;;;;;;;;;;;15.00;86.40;;;;;;4184461;28;19935;-42
2023/10/15 04:18:08;;;;;;;;;;;15.00;87.30;;;;;;4201087;28;19931;-42
2023/10/15 04:20:49;;;;;;;;;;;15.00;86.50;;;;;;4187129;28;19936;-43
2023/10/15 04:23:34;;;;;;;;;;;15.00;86.50;;;;;;4188553;28;20187;-41
2023/10/15 04:26:16;;;;;;;;;;;15.00;86.60;;;;;;4188488;28;19973;-43
2023/10/15 04:28:58;;;;;;;;;;;15.00;86.60;;;;;;4171224;28;20027;-42
2023/10/15 04:31:39;;;;;;;;;;;15.00;86.70;;;;;;4162002;28;19967;-43
2023/10/15 04:34:21;;;;;;;;;;;15.00;86.70;;;;;;4173817;28;19953;-48
2023/10/15 04:37:10;;;;;;;;;;;15.00;86.80;;;;;;4197770;28;19977;-46
2023/10/15 04:39:53;;;;;;;;;;;15.00;86.90;;;;;;4180215;28;19944;-41
2023/10/15 04:42:48;;;;;;;;;;;15.00;86.90;;;;;;4196252;28;19932;-44
2023/10/15 04:45:42;;;;;;;;;;;15.00;87.00;;;;;;4183887;28;19936;-44
2023/10/15 04:48:27;;;;;;;;;;;15.00;87.00;;;;;;4193028;28;19981;-44
2023/10/15 04:51:12;;;;;;;;;;;15.00;87.10;;;;;;4202921;28;19931;-48
2023/10/15 04:53:53;;;;;;;;;;;15.00;88.00;;;;;;4201716;28;19931;-44
2023/10/15 04:56:36;;;;;;;;;;;15.00;87.10;;;;;;4203706;28;19934;-45
2023/10/15 04:59:19;;;;;;;;;;;15.00;88.00;;;;;;4203212;28;19935;-47
2023/10/15 05:01:59;;;;;;;;;;;15.00;87.20;;;;;;4199666;28;19932;-46
2023/10/15 05:04:40;;;;;;;;;;;14.90;87.10;;;;;;4186359;28;19931;-44
2023/10/15 05:07:21;;;;;;;;;;;15.00;87.20;;;;;;4186899;28;19931;-45
2023/10/15 05:10:02;;;;;;;;;;;14.90;87.10;;;;;;4197884;28;20409;-50
2023/10/15 05:12:43;;;;;;;;;;;14.90;87.30;;;;;;4188242;28;20066;-45
2023/10/15 05:15:25;;;;;;;;;;;14.90;87.20;;;;;;4201977;28;19931;-47
2023/10/15 05:18:06;;;;;;;;;;;14.90;87.30;;;;;;4190545;28;19935;-49
2023/10/15 05:20:48;;;;;;;;;;;14.90;87.30;;;;;;4204471;28;19931;-48
2023/10/15 05:23:29;;;;;;;;;;;14.90;87.40;;;;;;4190697;28;20017;-43
2023/10/15 05:26:10;;;;;;;;;;;14.90;87.50;;;;;;4175520;28;19940;-41
2023/10/15 05:28:51;;;;;;;;;;;14.90;87.50;;;;;;4174021;28;19932;-42
2023/10/15 05:31:35;;;;;;;;;;;14.90;87.50;;;;;;4177143;28;19935;-43
2023/10/15 05:34:16;;;;;;;;;;;14.90;87.50;;;;;;4173984;28;20014;-43
2023/10/15 05:37:02;;;;;;;;;;;14.90;87.50;;;;;;4197908;28;20012;-42
2023/10/15 05:39:43;;;;;;;;;;;14.90;87.60;;;;;;4195463;28;20393;-42
2023/10/15 05:42:24;;;;;;;;;;;14.90;87.60;;;;;;4189408;28;19974;-48
2023/10/15 05:45:06;;;;;;;;;;;14.90;87.60;;;;;;4190677;28;19939;-44
2023/10/15 05:47:48;;;;;;;;;;;14.90;87.70;;;;;;4189941;28;20062;-43
2023/10/15 05:50:29;;;;;;;;;;;14.90;87.70;;;;;;4181604;28;20295;-46
2023/10/15 05:53:10;;;;;;;;;;;14.90;87.60;;;;;;4188144;28;19974;-45
2023/10/15 05:55:51;;;;;;;;;;;14.90;87.50;;;;;;4172518;28;20438;-47
2023/10/15 05:58:31;;;;;;;;;;;14.90;87.50;;;;;;4172530;28;19936;-42
2023/10/15 06:01:12;;;;;;;;;;;14.90;87.30;;;;;;4173609;28;20386;-46
2023/10/15 06:03:54;;;;;;;;;;;14.90;87.40;;;;;;4172333;28;20008;-43
2023/10/15 06:06:36;;;;;;;;;;;14.80;87.20;;;;;;4188480;28;19931;-42
2023/10/15 06:09:17;;;;;;;;;;;14.80;87.30;;;;;;4188193;28;20009;-44
2023/10/15 06:11:58;;;;;;;;;;;14.80;87.40;;;;;;4188884;28;19932;-42
2023/10/15 06:14:39;;;;;;;;;;;14.80;87.40;;;;;;4188349;28;19935;-44
2023/10/15 06:17:20;;;;;;;;;;;14.80;87.40;;;;;;4188252;28;19962;-44
2023/10/15 06:20:12;;;;;;;;;;;14.80;87.30;;;;;;4191481;28;20011;-42
2023/10/15 06:22:56;;;;;;;;;;;14.80;87.30;;;;;;4192790;28;19931;-43
2023/10/15 06:25:38;;;;;;;;;;;14.80;87.30;;;;;;4201429;28;19932;-44
2023/10/15 06:28:20;;;;;;;;;;;14.80;87.30;;;;;;4194778;28;19981;-43
2023/10/15 06:31:01;;;;;;;;;;;14.70;87.30;;;;;;4187790;28;19978;-44
2023/10/15 06:33:42;;;;;;;;;;;14.80;87.80;;;;;;4179293;28;19935;-44
2023/10/15 06:36:26;;;;;;;;;;;14.80;89.30;;;;;;4170510;28;19935;-44
2023/10/15 06:39:08;;;;;;;;;;;14.80;90.00;;;;;;4185639;28;19931;-44
2023/10/15 06:41:49;;;;;;;;;;;14.80;90.10;;;;;;4205059;28;20376;-44
2023/10/15 06:44:33;;;;;;;;;;;14.80;90.80;;;;;;4198570;28;19935;-44
2023/10/15 06:47:14;;;;;;;;;;;14.80;90.50;;;;;;4198934;28;20025;-44
2023/10/15 06:49:55;;;;;;;;;;;14.80;90.30;;;;;;4185885;28;19932;-47
2023/10/15 06:52:38;;;;;;;;;;;14.80;90.00;;;;;;4204470;28;20009;-43
2023/10/15 06:55:21;;;;;;;;;;;14.80;89.80;;;;;;4204074;28;20381;-44
2023/10/15 06:58:02;;;;;;;;;;;14.80;90.20;;;;;;4194713;28;19932;-44
2023/10/15 07:00:43;;;;;;;;;;;14.80;89.40;;;;;;4204891;28;20399;-45
2023/10/15 07:03:24;;;;;;;;;;;14.70;89.20;;;;;;4203181;28;19935;-43
2023/10/15 07:06:06;;;;;;;;;;;14.70;89.90;;;;;;4204683;28;20497;-42
2023/10/15 07:08:50;;;;;;;;;;;14.70;88.90;;;;;;4203214;28;19931;-41
2023/10/15 07:11:30;;;;;;;;;;;14.70;88.80;;;;;;4199471;28;19935;-41
2023/10/15 07:14:11;;;;;;;;;;;14.70;89.60;;;;;;4204342;28;19931;-42
2023/10/15 07:16:52;;;;;;;;;;;14.70;88.70;;;;;;4193901;28;19943;-41
2023/10/15 07:19:35;;;;;;;;;;;14.70;88.70;;;;;;4203557;28;19935;-43
2023/10/15 07:22:16;;;;;;;;;;;14.70;89.60;;;;;;4202972;28;19933;-41
2023/10/15 07:24:58;;;;;;;;;;;14.70;88.80;;;;;;4201422;28;20287;-46
2023/10/15 07:27:41;;;;;;;;;;;14.70;89.20;;;;;;4195261;28;20061;-43
2023/10/15 07:30:22;;;;;;;;;;;14.70;89.50;;;;;;4204572;28;20400;-43
2023/10/15 07:33:03;;;;;;;;;;;14.70;89.60;;;;;;4195089;28;20013;-42
2023/10/15 07:35:46;;;;;;;;;;;14.80;89.60;;;;;;4187302;28;19934;-42
2023/10/15 07:38:27;;;;;;;;;;;14.80;89.60;;;;;;4191011;28;20018;-42
2023/10/15 07:41:09;;;;;;;;;;;14.70;89.40;;;;;;4202769;28;20128;-42
2023/10/15 07:43:50;;;;;;;;;;;14.70;89.40;;;;;;4193228;28;19935;-42
2023/10/15 07:46:33;;;;;;;;;;;14.70;89.40;;;;;;4196511;28;20021;-42
2023/10/15 07:49:16;;;;;;;;;;;14.70;89.40;;;;;;4201528;28;20320;-42
2023/10/15 07:51:56;;;;;;;;;;;14.70;90.10;;;;;;4202067;28;19979;-42
2023/10/15 07:54:37;;;;;;;;;;;14.70;89.40;;;;;;4194592;28;19931;-42
2023/10/15 07:57:20;;;;;;;;;;;14.70;89.30;;;;;;4170997;28;20366;-42
2023/10/15 08:00:00;;;;;;;;;;;14.70;90.10;;;;;;4186169;28;20324;-43
2023/10/15 08:02:52;;;;;;;;;;;14.70;89.40;;;;;;4186289;28;19935;-44
2023/10/15 08:05:36;;;;;;;;;;;14.70;89.40;;;;;;4169284;28;19935;-43
2023/10/15 08:08:17;;;;;;;;;;;14.60;89.30;;;;;;4182399;28;19966;-44
2023/10/15 08:10:59;;;;;;;;;;;14.60;89.30;;;;;;4185604;28;20353;-44
2023/10/15 08:13:41;;;;;;;;;;;14.60;89.30;;;;;;4186632;28;20393;-45
2023/10/15 08:16:24;;;;;;;;;;;14.60;89.20;;;;;;4186702;28;20968;-44
2023/10/15 08:19:05;;;;;;;;;;;14.60;89.20;;;;;;4182955;28;19935;-44
2023/10/15 08:21:46;;;;;;;;;;;14.60;89.10;;;;;;4183380;28;20592;-43
2023/10/15 08:24:28;;;;;;;;;;;14.60;89.00;;;;;;4186117;28;19935;-45
2023/10/15 08:27:09;;;;;;;;;;;14.60;88.70;;;;;;4196811;28;20397;-43
2023/10/15 08:29:51;;;;;;;;;;;14.60;88.60;;;;;;4186911;28;19935;-43
2023/10/15 08:32:32;;;;;;;;;;;14.60;88.50;;;;;;4186564;28;20266;-44
2023/10/15 08:35:14;;;;;;;;;;;14.60;88.60;;;;;;4187322;28;20025;-43
2023/10/15 08:37:59;;;;;;;;;;;14.60;88.40;;;;;;4187002;28;20397;-42
2023/10/15 08:40:44;;;;;;;;;;;14.60;88.70;;;;;;4186984;28;19995;-42
2023/10/15 08:43:25;;;;;;;;;;;14.60;88.60;;;;;;4170747;28;19935;-42
2023/10/15 08:46:09;;;;;;;;;;;14.60;89.50;;;;;;4171076;28;19935;-42
2023/10/15 08:48:51;;;;;;;;;;;14.60;88.70;;;;;;4176313;28;19947;-39
2023/10/15 08:51:34;;;;;;;;;;;14.60;88.80;;;;;;4169478;28;19986;-42
2023/10/15 08:54:15;;;;;;;;;;;14.60;88.70;;;;;;4175608;28;20394;-41
2023/10/15 08:56:56;;;;;;;;;;;14.60;88.30;;;;;;4173373;28;20395;-42
2023/10/15 08:59:38;;;;;;;;;;;14.50;88.90;;;;;;4173661;28;19982;-42
2023/10/15 09:02:22;;;;;;;;;;;14.50;87.90;;;;;;4175420;28;19932;-42
2023/10/15 09:05:04;;;;;;;;;;;14.50;87.40;;;;;;4190267;28;20091;-41
2023/10/15 09:07:47;;;;;;;;;;;14.50;87.90;;;;;;4173613;28;19936;-43
2023/10/15 09:10:29;;;;;;;;;;;14.50;86.90;;;;;;4189815;28;20062;-44
2023/10/15 09:13:14;;;;;;;;;;;14.40;87.00;;;;;;4198555;28;20066;-44
2023/10/15 09:15:56;;;;;;;;;;;14.40;87.30;;;;;;4206783;28;20057;-43
2023/10/15 09:18:38;;;;;;;;;;;14.40;87.30;;;;;;4192509;28;20289;-43
2023/10/15 09:21:24;;;;;;;;;;;14.40;87.60;;;;;;4206548;28;19935;-43
2023/10/15 09:24:06;;;;;;;;;;;14.40;87.60;;;;;;4203441;28;19963;-43
2023/10/15 09:26:48;;;;;;;;;;;14.40;87.60;;;;;;4206136;28;19942;-42
2023/10/15 09:29:30;;;;;;;;;;;14.40;87.70;;;;;;4205905;28;19970;-41
2023/10/15 09:32:11;;;;;;;;;;;14.40;87.70;;;;;;4205855;28;19974;-43
2023/10/15 09:34:54;;;;;;;;;;;14.40;87.70;;;;;;4206595;28;19935;-44
2023/10/15 09:37:35;;;;;;;;;;;14.40;87.80;;;;;;4206276;28;19972;-44
2023/10/15 09:40:20;;;;;;;;;;;14.40;87.80;;;;;;4205945;28;19934;-47
2023/10/15 09:43:01;;;;;;;;;;;14.50;87.90;;;;;;4206099;28;19931;-44
2023/10/15 09:45:42;;;;;;;;;;;14.50;87.90;;;;;;4205946;28;19932;-46
2023/10/15 09:48:24;;;;;;;;;;;14.50;88.00;;;;;;4206053;28;19931;-43
2023/10/15 09:51:07;;;;;;;;;;;14.50;88.10;;;;;;4206461;28;20369;-44
2023/10/15 09:53:50;;;;;;;;;;;14.60;88.20;;;;;;4206205;28;19931;-46
2023/10/15 09:56:31;;;;;;;;;;;14.60;88.20;;;;;;4193504;28;20382;-46
2023/10/15 09:59:14;;;;;;;;;;;14.60;88.30;;;;;;4205758;28;19931;-44
2023/10/15 10:01:55;;;;;;;;;;;14.60;88.40;;;;;;4206303;28;19934;-46
2023/10/15 10:04:48;;;;;;;;;;;14.60;88.40;;;;;;4189928;28;19936;-43
2023/10/15 10:07:39;;;;;;;;;;;14.60;88.40;;;;;;4187846;28;19935;-43
2023/10/15 10:10:38;;;;;;;;;;;14.60;88.40;;;;;;4195063;28;20397;-42
2023/10/15 10:13:32;;;;;;;;;;;14.60;88.50;;;;;;4205208;28;19931;-42
2023/10/15 10:16:21;;;;;;;;;;;14.60;88.50;;;;;;4178981;28;20058;-44
2023/10/15 10:19:02;;;;;;;;;;;14.70;88.50;;;;;;4189177;28;20313;-42
2023/10/15 10:21:46;;;;;;;;;;;14.70;88.70;;;;;;4199297;28;20472;-49
2023/10/15 10:24:42;;;;;;;;;;;14.70;88.70;;;;;;4182578;28;20449;-49
2023/10/15 10:27:25;;;;;;;;;;;14.70;89.50;;;;;;4186315;28;20394;-52
2023/10/15 10:30:23;;;;;;;;;;;14.80;88.60;;;;;;4185061;28;20004;-47
2023/10/15 10:33:03;;;;;;;;;;;14.90;87.90;;;;;;4185339;28;19995;-46
2023/10/15 10:35:45;;;;;;;;;;;15.00;86.80;;;;;;4173569;28;19939;-43
2023/10/15 10:38:25;;;;;;;;;;;15.20;85.90;;;;;;4171829;28;19931;-43
2023/10/15 10:41:13;;;;;;;;;;;15.40;84.00;;;;;;4189862;28;19981;-47
2023/10/15 10:44:08;;;;;;;;;;;15.60;82.80;;;;;;4171479;28;20090;-44
2023/10/15 10:47:16;;;;;;;;;;;15.80;81.60;;;;;;4170568;28;19932;-43
2023/10/15 10:49:58;;;;;;;;;;;16.00;80.80;;;;;;4180481;28;19935;-51
2023/10/15 10:52:40;;;;;;;;;;;16.20;80.30;;;;;;4199340;28;19931;-49
2023/10/15 10:55:33;;;;;;;;;;;16.40;78.40;;;;;;4203527;28;19939;-48
2023/10/15 10:58:24;;;;;;;;;;;16.60;77.50;;;;;;4202473;28;19951;-43
2023/10/15 11:01:06;;;;;;;;;;;16.70;76.20;;;;;;4182339;28;20389;-44
2023/10/15 11:03:48;;;;;;;;;;;16.80;75.50;;;;;;4170768;28;20467;-44
2023/10/15 11:06:29;;;;;;;;;;;16.80;75.70;;;;;;4176818;28;20287;-42
2023/10/15 11:09:15;;;;;;;;;;;16.80;75.40;;;;;;4173806;28;20000;-41
2023/10/15 11:11:57;;;;;;;;;;;16.80;74.90;;;;;;4186366;28;19932;-43
2023/10/15 11:14:39;;;;;;;;;;;16.80;73.30;;;;;;4197903;28;19946;-45
2023/10/15 11:17:22;;;;;;;;;;;16.70;74.70;;;;;;4184989;28;20072;-43
2023/10/15 11:20:04;;;;;;;;;;;16.70;75.20;;;;;;4202480;28;19931;-44
2023/10/15 11:22:45;;;;;;;;;;;16.70;75.90;;;;;;4196662;28;19963;-43
2023/10/15 11:25:26;;;;;;;;;;;16.70;76.50;;;;;;4205038;28;19966;-45
2023/10/15 11:28:10;;;;;;;;;;;16.70;77.10;;;;;;4203476;28;19931;-43
2023/10/15 11:30:51;;;;;;;;;;;16.70;77.70;;;;;;4201135;28;20061;-43
2023/10/15 11:33:34;;;;;;;;;;;16.70;77.50;;;;;;4204241;28;19942;-43
2023/10/15 11:36:17;;;;;;;;;;;16.70;77.40;;;;;;4204580;28;20705;-43
2023/10/15 11:38:59;;;;;;;;;;;16.70;78.30;;;;;;4204503;28;19931;-45
2023/10/15 11:41:40;;;;;;;;;;;16.70;78.10;;;;;;4170065;28;19935;-45
2023/10/15 11:44:25;;;;;;;;;;;16.70;78.30;;;;;;4175436;28;19932;-43
2023/10/15 11:47:12;;;;;;;;;;;16.60;77.10;;;;;;4171167;28;20038;-43
2023/10/15 11:49:54;;;;;;;;;;;16.50;77.00;;;;;;4175634;28;19931;-43
2023/10/15 11:52:40;;;;;;;;;;;16.50;77.10;;;;;;4204348;28;20003;-46
2023/10/15 11:55:22;;;;;;;;;;;16.40;77.50;;;;;;4197538;28;19954;-43
2023/10/15 11:58:10;;;;;;;;;;;16.30;79.00;;;;;;4201219;28;20287;-42
2023/10/15 12:00:52;;;;;;;;;;;16.30;78.70;;;;;;4188992;28;19967;-49
2023/10/15 12:03:33;;;;;;;;;;;16.20;79.10;;;;;;4203386;28;20016;-49
2023/10/15 12:06:16;;;;;;;;;;;16.20;79.60;;;;;;4202950;28;19935;-48
2023/10/15 12:08:58;;;;;;;;;;;16.10;80.90;;;;;;4203821;28;19973;-49
2023/10/15 12:11:40;;;;;;;;;;;16.10;80.40;;;;;;4194308;28;20342;-46
2023/10/15 12:14:21;;;;;;;;;;;16.10;80.90;;;;;;4204493;28;19946;-44
2023/10/15 12:17:04;;;;;;;;;;;16.10;81.30;;;;;;4202406;28;19931;-46
2023/10/15 12:19:47;;;;;;;;;;;16.00;81.60;;;;;;4199806;28;19935;-43
2023/10/15 12:22:34;;;;;;;;;;;16.00;82.30;;;;;;4187086;28;19966;-43
2023/10/15 12:25:14;;;;;;;;;;;16.00;83.40;;;;;;4182959;28;19931;-43
2023/10/15 12:27:55;;;;;;;;;;;16.00;84.40;;;;;;4197200;28;19936;-42
2023/10/15 12:30:36;;;;;;;;;;;16.00;84.10;;;;;;4172892;28;20366;-43
2023/10/15 12:33:17;;;;;;;;;;;15.90;82.30;;;;;;4168609;28;19932;-44
2023/10/15 12:35:59;;;;;;;;;;;15.80;81.00;;;;;;4177638;28;20401;-43
2023/10/15 12:38:43;;;;;;;;;;;15.80;81.40;;;;;;4170968;28;19981;-42
2023/10/15 12:41:25;;;;;;;;;;;15.70;81.90;;;;;;4178846;28;19988;-42
2023/10/15 12:44:10;;;;;;;;;;;15.70;81.80;;;;;;4187834;28;19931;-42
2023/10/15 12:46:51;;;;;;;;;;;15.70;83.50;;;;;;4193067;28;20069;-44
2023/10/15 12:49:32;;;;;;;;;;;15.70;84.90;;;;;;4187267;28;19936;-42
2023/10/15 12:52:12;;;;;;;;;;;15.60;84.70;;;;;;4197020;28;20378;-42
2023/10/15 12:54:55;;;;;;;;;;;15.60;85.90;;;;;;4188508;28;19935;-41
2023/10/15 12:57:36;;;;;;;;;;;15.60;82.80;;;;;;4186253;28;19931;-43
2023/10/15 13:00:18;;;;;;;;;;;15.50;83.90;;;;;;4203809;28;19976;-41
2023/10/15 13:02:59;;;;;;;;;;;15.50;83.20;;;;;;4202581;28;20382;-41
2023/10/15 13:05:40;;;;;;;;;;;15.50;84.30;;;;;;4193608;28;19947;-45
2023/10/15 13:08:20;;;;;;;;;;;15.40;86.40;;;;;;4169561;28;19935;-42
2023/10/15 13:11:04;;;;;;;;;;;15.40;85.50;;;;;;4174646;28;19932;-42
2023/10/15 13:13:46;;;;;;;;;;;15.40;86.20;;;;;;4188381;28;20052;-45
2023/10/15 13:16:27;;;;;;;;;;;15.40;87.40;;;;;;4190850;28;20154;-42
2023/10/15 13:19:08;;;;;;;;;;;15.40;88.10;;;;;;4188977;28;20282;-43
2023/10/15 13:21:48;;;;;;;;;;;15.30;88.40;;;;;;4186793;28;19952;-42
2023/10/15 13:24:29;;;;;;;;;;;15.40;89.10;;;;;;4187513;28;19971;-41
2023/10/15 13:27:12;;;;;;;;;;;15.40;89.50;;;;;;4203821;28;19935;-41
2023/10/15 13:29:53;;;;;;;;;;;15.40;89.70;;;;;;4203040;28;19931;-42
2023/10/15 13:32:34;;;;;;;;;;;15.40;90.20;;;;;;4202177;28;19938;-42
2023/10/15 13:35:15;;;;;;;;;;;15.40;89.90;;;;;;4201927;28;19935;-45
2023/10/15 13:37:58;;;;;;;;;;;15.40;90.00;;;;;;4202349;28;19974;-46
2023/10/15 13:40:39;;;;;;;;;;;15.50;90.10;;;;;;4205833;28;19943;-42
2023/10/15 13:43:22;;;;;;;;;;;15.50;88.60;;;;;;4206171;28;19932;-44
2023/10/15 13:46:04;;;;;;;;;;;15.60;88.10;;;;;;4191470;28;20066;-42
2023/10/15 13:48:45;;;;;;;;;;;15.70;88.10;;;;;;4189589;28;19931;-42
2023/10/15 13:51:26;;;;;;;;;;;15.70;87.80;;;;;;4179729;28;20094;-43
2023/10/15 13:54:07;;;;;;;;;;;15.80;86.50;;;;;;4185083;28;20013;-42
2023/10/15 13:56:48;;;;;;;;;;;15.80;84.90;;;;;;4185696;28;19981;-41
2023/10/15 13:59:30;;;;;;;;;;;15.80;84.30;;;;;;4176197;28;20338;-44
2023/10/15 14:02:12;;;;;;;;;;;15.90;83.60;;;;;;4178483;28;19932;-43
2023/10/15 14:04:53;;;;;;;;;;;15.90;83.40;;;;;;4178615;28;19932;-41
2023/10/15 14:07:34;;;;;;;;;;;15.90;82.70;;;;;;4199841;28;19931;-41
2023/10/15 14:10:16;;;;;;;;;;;15.80;82.40;;;;;;4202922;28;19935;-41
2023/10/15 14:12:57;;;;;;;;;;;15.80;83.70;;;;;;4206082;28;20065;-41
2023/10/15 14:15:50;;;;;;;;;;;15.80;84.20;;;;;;4205289;28;19931;-41
2023/10/15 14:18:31;;;;;;;;;;;15.90;84.70;;;;;;4180738;28;19931;-43
2023/10/15 14:21:12;;;;;;;;;;;15.80;85.30;;;;;;4171616;28;19974;-42
2023/10/15 14:23:52;;;;;;;;;;;15.80;85.90;;;;;;4173442;28;19940;-42
2023/10/15 14:26:33;;;;;;;;;;;15.80;86.30;;;;;;4181644;28;19931;-43
2023/10/15 14:29:14;;;;;;;;;;;15.80;86.50;;;;;;4188583;28;19981;-41
2023/10/15 14:31:56;;;;;;;;;;;15.80;86.50;;;;;;4189459;28;19973;-41
2023/10/15 14:34:37;;;;;;;;;;;15.70;86.60;;;;;;4185994;28;20077;-41
2023/10/15 14:37:18;;;;;;;;;;;15.70;86.70;;;;;;4204488;28;19931;-42
2023/10/15 14:40:00;;;;;;;;;;;15.70;87.10;;;;;;4205438;28;19951;-41
2023/10/15 14:42:41;;;;;;;;;;;15.70;87.50;;;;;;4205332;28;19967;-40
2023/10/15 14:45:21;;;;;;;;;;;15.70;87.60;;;;;;4204968;28;19935;-41
2023/10/15 14:48:04;;;;;;;;;;;15.70;87.40;;;;;;4205453;28;19978;-41
2023/10/15 14:50:45;;;;;;;;;;;15.70;86.10;;;;;;4204886;28;20294;-41
2023/10/15 14:53:28;;;;;;;;;;;15.70;85.80;;;;;;4204901;28;20290;-41
2023/10/15 14:56:10;;;;;;;;;;;15.70;87.20;;;;;;4181197;28;19932;-43
2023/10/15 14:58:50;;;;;;;;;;;15.70;86.80;;;;;;4171072;28;19932;-42
2023/10/15 15:01:31;;;;;;;;;;;15.70;87.00;;;;;;4173397;28;19936;-42
2023/10/15 15:04:16;;;;;;;;;;;15.70;87.60;;;;;;4173503;28;19994;-42
2023/10/15 15:06:56;;;;;;;;;;;15.70;87.80;;;;;;4172270;28;19931;-42
2023/10/15 15:09:37;;;;;;;;;;;15.70;85.50;;;;;;4170791;28;19936;-43
2023/10/15 15:12:18;;;;;;;;;;;15.70;86.60;;;;;;4180163;28;20051;-44
2023/10/15 15:14:59;;;;;;;;;;;15.70;87.00;;;;;;4176707;28;19932;-44
2023/10/15 15:17:40;;;;;;;;;;;15.70;87.40;;;;;;4179372;28;20406;-44
2023/10/15 15:20:23;;;;;;;;;;;15.70;87.60;;;;;;4202615;28;19935;-41
2023/10/15 15:23:04;;;;;;;;;;;15.70;87.60;;;;;;4204592;28;19976;-44
2023/10/15 15:25:45;;;;;;;;;;;15.70;87.80;;;;;;4203293;28;20069;-41
2023/10/15 15:28:26;;;;;;;;;;;15.70;88.70;;;;;;4169447;28;19951;-43
2023/10/15 15:31:07;;;;;;;;;;;15.70;87.90;;;;;;4170136;28;19935;-43
2023/10/15 15:33:48;;;;;;;;;;;15.70;88.00;;;;;;4174806;28;19931;-45
2023/10/15 15:36:30;;;;;;;;;;;15.80;88.90;;;;;;4171056;28;19971;-42
2023/10/15 15:39:11;;;;;;;;;;;15.80;88.40;;;;;;4170743;28;20014;-45
2023/10/15 15:41:51;;;;;;;;;;;15.70;88.80;;;;;;4171896;28;19934;-42
2023/10/15 15:44:32;;;;;;;;;;;15.80;89.30;;;;;;4172070;28;19984;-42
2023/10/15 15:47:15;;;;;;;;;;;15.70;89.40;;;;;;4170915;28;19940;-43
2023/10/15 15:49:56;;;;;;;;;;;15.70;89.70;;;;;;4183928;28;19935;-44